Ireland METAR reports

 

EIDW - Dublin Airport, Ireland
Distance from station: WNW 13km
Updated: 10/12/2018 04:00
Clear
Clear
 Wind from WSW
Wind: WSW 13 km/h
Temperature: 3°C
Wind Chill: -1°C
Dew Point: 2°C
Humidity: 93%
Barometer: 1026 hPa
Summary: Clear
Visibility: greater than 10 km
2018/12/10 04:00 EIDW 100400Z 25007KT 230V290 CAVOK 03/02 Q1026 NOSIG
EIME - Casement (mil), Ireland
Distance from station: WSW 26km
Updated: 10/12/2018 04:00
Partly cloudy
Partly cloudy
 Wind from WSW
Wind: WSW 22 km/h
Temperature: 4°C
Wind Chill: -1°C
Dew Point: 3°C
Humidity: 93%
Barometer: 1026 hPa
Clouds: Partly cloudy
Visibility: 10 km
Cloud details: Few Clouds 457 m
Partly cloudy 5486 m
2018/12/10 04:00 EIME 100400Z 24012KT 9999 FEW015 SCT180 04/03 Q1026
EGAC - Belfast Harbour, United Kingdom
Distance from station: N 140km
Updated: 10/12/2018 03:50
Clear
Clear
 Wind from SSW
Wind: SSW 13 km/h
Temperature: 5°C
Wind Chill: 2°C
Dew Point: 4°C
Humidity: 93%
Barometer: 1024 hPa
Clouds: Clear
Visibility: 10 km
2018/12/10 03:50 EGAC 100350Z AUTO 20007KT 9999 NCD 05/04 Q1024
 
EGAA - Belfast/Aldergro, United Kingdom
Distance from station: N 141km
Updated: 10/12/2018 03:50
Clear
Clear
 Wind from S
Wind: S 6 km/h
Temperature: 4°C
Dew Point: 3°C
Humidity: 93%
Barometer: 1024 hPa
Clouds: Clear
Visibility: 10 km
2018/12/10 03:50 EGAA 100350Z AUTO 17003KT 9999 NCD 04/03 Q1024
EIWF - Waterford Arpt, Ireland
Distance from station: SSW 148km
Updated: 09/12/2018 20:30
NOT Current
Partly cloudy
Partly cloudy
 Wind from WNW
Wind: WNW 13 km/h
Temperature: 7°C
Wind Chill: 5°C
Dew Point: 4°C
Humidity: 81%
Barometer: 1026 hPa
Clouds: Partly cloudy
Visibility: 10 km
Cloud details: Partly cloudy 1097 m
2018/12/09 20:30 EIWF 092030Z 29007KT 9999 SCT036 07/04 Q1026
EIKN - Connaught Apt, Ireland
Distance from station: WNW 191km
Updated: 09/12/2018 20:00
NOT Current
Mostly cloudy
Mostly cloudy
 Wind from W
Wind: W 24 km/h
Temperature: 6°C
Wind Chill: 2°C
Dew Point: 4°C
Humidity: 87%
Barometer: 1023 hPa
Clouds: Mostly cloudy
Visibility: 10 km
Cloud details: Few Clouds 396 m
Few Clouds 549 m
Mostly cloudy 6706 m
2018/12/09 20:00 EIKN 092000Z 28013KT 9999 FEW013 FEW018CB BKN220 06/04 Q1023 NOSIG
 
EISG - Sligo Arpt, Ireland
Distance from station: WNW 195km
Updated: 09/12/2018 17:30
NOT Current
Mostly cloudy
Mostly cloudy
 Wind from WNW
Wind: WNW 43 km/h, Gust: 61 km/h
Temperature: 8°C
Wind Chill: 3°C
Dew Point: 6°C
Humidity: 87%
Barometer: 1020 hPa
Clouds: Mostly cloudy
Visibility: 10 km
Cloud details: Few Clouds 610 m
Partly cloudy 762 m
Mostly cloudy 1524 m
2018/12/09 17:30 EISG 091730Z 29023G33KT 9999 FEW020 SCT025 BKN050 08/06 Q1020
EGAE - Eglinton/Londond, United Kingdom
Distance from station: NNW 198km
Updated: 09/12/2018 21:20
NOT Current
Light rain, Showers, Partly cloudy
Light rain, Showers, Partly cloudy
 Wind from WSW
Wind: WSW 13 km/h
Temperature: 7°C
Wind Chill: 5°C
Dew Point: 6°C
Humidity: 93%
Barometer: 1021 hPa
Summary: Light rain, Showers
Clouds: Partly cloudy
Visibility: 9 km
Cloud details: Few Clouds 488 m
Partly cloudy 792 m
2018/12/09 21:20 EGAE 092120Z 24007KT 9000 -SHRA FEW016 SCT026 07/06 Q1021 RESHRA
EINN - Shannon Airport, Ireland
Distance from station: WSW 204km
Updated: 10/12/2018 04:00
Mostly cloudy
Mostly cloudy
 Wind from S
Wind: S 9 km/h
Temperature: 5°C
Wind Chill: 3°C
Dew Point: 4°C
Humidity: 93%
Barometer: 1027 hPa
Clouds: Mostly cloudy
Visibility: 10 km
Cloud details: Few Clouds 792 m
Mostly cloudy 3658 m
2018/12/10 04:00 EINN 100400Z 19005KT 9999 FEW026 BKN120 05/04 Q1027 NOSIG
 
EICK - Cork Arpt/Corcai, Ireland
Distance from station: SW 234km
Updated: 10/12/2018 04:00
Clear
Clear
 Wind from WSW
Wind: WSW 11 km/h
Temperature: 7°C
Wind Chill: 5°C
Dew Point: 4°C
Humidity: 81%
Barometer: 1028 hPa
Summary: Clear
Visibility: greater than 10 km
2018/12/10 04:00 EICK 100400Z 25006KT CAVOK 07/04 Q1028 NOSIG